Hoegaarden, Belgium
Current Conditions -  °F | °C
As of 5:25 AM on Thursday 27 Nov 2014 (Local Time) from EBBE Reporting Station
Broken Clouds Broken Clouds  
Wind Chill: 45°   Ceiling: 4700
Heat Index: 48°   Visibility: 6mi
Dew Point: 46°   Wind: 7mph
Humidity: 93%   Direction: 160°SSE
Pressure: 29.77"   Gusts: NA
Location:  50.78°N, 4.89°E
Report Text: EBBE 270425Z 16006KT 9999 BKN047 09/08 Q1008 BLU
Loading
Personal Weather Stations






























Interactive Weather Map New forecast layout! Learn more

10-Day Weather Forecast

Advertisements
Track Severe Weather on mobile